Terminal Aerodrome Forecast
Issued by NWS Portland, OR

Home | Current Version | Previous Version | Text Only | Print | Product List | Glossary On
Versions: 1 2 3 4 5 6 7 8 9 10 11 12 13 14 15 16 17 18 19 20 21 22 23 24 25
000
FTUS46 KPQR 291136
TAFEUG
TAF
KEUG 291136Z 2912/3012 20012G22KT P6SM -RA SCT035 OVC060
     FM291600 20017G35KT P6SM -SHRA SCT035 BKN060
     FM291900 24013G22KT P6SM -SHRA SCT030 BKN050
     FM300300 19010KT P6SM -RA OVC040=

USA.gov is the U.S. government's official web portal to all federal, state and local government web resources and services.